sensor_id;sensor_type;location;lat;lon;timestamp;temperature;humidity
38241;DHT22;24037;49.536;8.500;2022-08-19T00:01:37;20.50;99.90
38241;DHT22;24037;49.536;8.500;2022-08-19T00:04:04;20.50;99.90
38241;DHT22;24037;49.536;8.500;2022-08-19T00:06:30;20.50;99.90
38241;DHT22;24037;49.536;8.500;2022-08-19T00:08:57;20.50;99.90
38241;DHT22;24037;49.536;8.500;2022-08-19T00:11:23;20.50;99.90
38241;DHT22;24037;49.536;8.500;2022-08-19T00:13:52;20.40;99.90
38241;DHT22;24037;49.536;8.500;2022-08-19T00:16:18;20.40;99.90
38241;DHT22;24037;49.536;8.500;2022-08-19T00:18:45;20.40;99.90
38241;DHT22;24037;49.536;8.500;2022-08-19T00:21:11;20.40;99.90
38241;DHT22;24037;49.536;8.500;2022-08-19T00:23:37;20.40;99.90
38241;DHT22;24037;49.536;8.500;2022-08-19T00:26:04;20.40;99.90
38241;DHT22;24037;49.536;8.500;2022-08-19T00:28:30;20.40;99.90
38241;DHT22;24037;49.536;8.500;2022-08-19T00:30:56;20.40;99.90
38241;DHT22;24037;49.536;8.500;2022-08-19T00:33:22;20.40;99.90
38241;DHT22;24037;49.536;8.500;2022-08-19T00:35:48;20.40;99.90
38241;DHT22;24037;49.536;8.500;2022-08-19T00:38:14;20.40;99.90
38241;DHT22;24037;49.536;8.500;2022-08-19T00:40:42;20.40;99.90
38241;DHT22;24037;49.536;8.500;2022-08-19T00:43:09;20.40;99.90
38241;DHT22;24037;49.536;8.500;2022-08-19T00:45:36;20.30;99.90
38241;DHT22;24037;49.536;8.500;2022-08-19T00:48:03;20.40;99.90
38241;DHT22;24037;49.536;8.500;2022-08-19T00:50:32;20.40;99.90
38241;DHT22;24037;49.536;8.500;2022-08-19T00:52:58;20.40;99.90
38241;DHT22;24037;49.536;8.500;2022-08-19T00:55:26;20.40;99.90
38241;DHT22;24037;49.536;8.500;2022-08-19T00:57:55;20.40;99.90
38241;DHT22;24037;49.536;8.500;2022-08-19T01:00:22;20.40;99.90
38241;DHT22;24037;49.536;8.500;2022-08-19T01:02:50;20.40;99.90
38241;DHT22;24037;49.536;8.500;2022-08-19T01:05:17;20.40;99.90
38241;DHT22;24037;49.536;8.500;2022-08-19T01:07:46;20.40;99.90
38241;DHT22;24037;49.536;8.500;2022-08-19T01:10:14;20.40;99.90
38241;DHT22;24037;49.536;8.500;2022-08-19T01:12:41;20.40;99.90
38241;DHT22;24037;49.536;8.500;2022-08-19T01:15:08;20.40;99.90
38241;DHT22;24037;49.536;8.500;2022-08-19T01:17:34;20.40;99.90
38241;DHT22;24037;49.536;8.500;2022-08-19T01:20:03;20.40;99.90
38241;DHT22;24037;49.536;8.500;2022-08-19T01:25:28;20.40;99.90
38241;DHT22;24037;49.536;8.500;2022-08-19T01:27:55;20.30;99.90
38241;DHT22;24037;49.536;8.500;2022-08-19T01:30:23;20.40;99.90
38241;DHT22;24037;49.536;8.500;2022-08-19T01:32:50;20.30;99.90
38241;DHT22;24037;49.536;8.500;2022-08-19T01:35:16;20.30;99.90
38241;DHT22;24037;49.536;8.500;2022-08-19T01:37:45;20.30;99.90
38241;DHT22;24037;49.536;8.500;2022-08-19T01:40:11;20.20;99.90
38241;DHT22;24037;49.536;8.500;2022-08-19T01:42:37;20.20;99.90
38241;DHT22;24037;49.536;8.500;2022-08-19T01:45:04;20.20;99.90
38241;DHT22;24037;49.536;8.500;2022-08-19T01:47:30;20.20;99.90
38241;DHT22;24037;49.536;8.500;2022-08-19T01:49:57;20.20;99.90
38241;DHT22;24037;49.536;8.500;2022-08-19T01:52:23;20.10;99.90
38241;DHT22;24037;49.536;8.500;2022-08-19T01:54:49;20.10;99.90
38241;DHT22;24037;49.536;8.500;2022-08-19T01:57:15;20.10;99.90
38241;DHT22;24037;49.536;8.500;2022-08-19T01:59:41;20.10;99.90
38241;DHT22;24037;49.536;8.500;2022-08-19T02:02:08;20.10;99.90
38241;DHT22;24037;49.536;8.500;2022-08-19T02:04:35;20.10;99.90
38241;DHT22;24037;49.536;8.500;2022-08-19T02:07:01;20.00;99.90
38241;DHT22;24037;49.536;8.500;2022-08-19T02:09:27;20.00;99.90
38241;DHT22;24037;49.536;8.500;2022-08-19T02:11:53;19.90;99.90
38241;DHT22;24037;49.536;8.500;2022-08-19T02:14:19;19.90;99.90
38241;DHT22;24037;49.536;8.500;2022-08-19T02:16:45;19.90;99.90
38241;DHT22;24037;49.536;8.500;2022-08-19T02:19:11;19.80;99.90
38241;DHT22;24037;49.536;8.500;2022-08-19T02:21:37;19.90;99.90
38241;DHT22;24037;49.536;8.500;2022-08-19T02:24:03;19.90;99.90
38241;DHT22;24037;49.536;8.500;2022-08-19T02:26:29;19.80;99.90
38241;DHT22;24037;49.536;8.500;2022-08-19T02:28:55;19.70;99.90
38241;DHT22;24037;49.536;8.500;2022-08-19T02:31:23;19.70;99.90
38241;DHT22;24037;49.536;8.500;2022-08-19T02:33:49;19.70;99.90
38241;DHT22;24037;49.536;8.500;2022-08-19T02:36:16;19.60;99.90
38241;DHT22;24037;49.536;8.500;2022-08-19T02:38:43;19.60;99.90
38241;DHT22;24037;49.536;8.500;2022-08-19T02:41:20;19.50;99.90
38241;DHT22;24037;49.536;8.500;2022-08-19T02:43:47;19.40;99.90
38241;DHT22;24037;49.536;8.500;2022-08-19T02:46:17;19.40;99.90
38241;DHT22;24037;49.536;8.500;2022-08-19T02:48:50;19.50;99.90
38241;DHT22;24037;49.536;8.500;2022-08-19T02:51:26;19.60;99.90
38241;DHT22;24037;49.536;8.500;2022-08-19T02:53:53;19.60;99.90
38241;DHT22;24037;49.536;8.500;2022-08-19T02:56:19;19.60;99.90
38241;DHT22;24037;49.536;8.500;2022-08-19T02:58:45;19.60;99.90
38241;DHT22;24037;49.536;8.500;2022-08-19T03:01:19;19.60;99.90
38241;DHT22;24037;49.536;8.500;2022-08-19T03:03:45;19.50;99.90
38241;DHT22;24037;49.536;8.500;2022-08-19T03:06:12;19.60;99.90
38241;DHT22;24037;49.536;8.500;2022-08-19T03:08:40;19.60;99.90
38241;DHT22;24037;49.536;8.500;2022-08-19T03:11:11;19.60;99.90
38241;DHT22;24037;49.536;8.500;2022-08-19T03:13:37;19.60;99.90
38241;DHT22;24037;49.536;8.500;2022-08-19T03:16:04;19.60;99.90
38241;DHT22;24037;49.536;8.500;2022-08-19T03:18:30;19.60;99.90
38241;DHT22;24037;49.536;8.500;2022-08-19T03:20:56;19.60;99.90
38241;DHT22;24037;49.536;8.500;2022-08-19T03:23:22;19.60;99.90
38241;DHT22;24037;49.536;8.500;2022-08-19T03:25:49;19.50;99.90
38241;DHT22;24037;49.536;8.500;2022-08-19T03:28:15;19.40;99.90
38241;DHT22;24037;49.536;8.500;2022-08-19T03:30:42;19.40;99.90
38241;DHT22;24037;49.536;8.500;2022-08-19T03:33:10;19.40;99.90
38241;DHT22;24037;49.536;8.500;2022-08-19T03:35:37;19.40;99.90
38241;DHT22;24037;49.536;8.500;2022-08-19T03:38:04;19.30;99.90
38241;DHT22;24037;49.536;8.500;2022-08-19T03:40:30;19.30;99.90
38241;DHT22;24037;49.536;8.500;2022-08-19T03:43:00;19.20;99.90
38241;DHT22;24037;49.536;8.500;2022-08-19T03:45:26;19.30;99.90
38241;DHT22;24037;49.536;8.500;2022-08-19T03:47:53;19.20;99.90
38241;DHT22;24037;49.536;8.500;2022-08-19T03:50:19;19.20;99.90
38241;DHT22;24037;49.536;8.500;2022-08-19T03:52:51;19.20;99.90
38241;DHT22;24037;49.536;8.500;2022-08-19T03:55:18;19.20;99.90
38241;DHT22;24037;49.536;8.500;2022-08-19T03:57:44;19.10;99.90
38241;DHT22;24037;49.536;8.500;2022-08-19T04:00:11;19.10;99.90
38241;DHT22;24037;49.536;8.500;2022-08-19T04:02:37;19.10;99.90
38241;DHT22;24037;49.536;8.500;2022-08-19T04:05:03;19.00;99.90
38241;DHT22;24037;49.536;8.500;2022-08-19T04:07:30;19.00;99.90
38241;DHT22;24037;49.536;8.500;2022-08-19T04:09:56;19.00;99.90
38241;DHT22;24037;49.536;8.500;2022-08-19T04:12:22;19.00;99.90
38241;DHT22;24037;49.536;8.500;2022-08-19T04:14:48;19.00;99.90
38241;DHT22;24037;49.536;8.500;2022-08-19T04:17:14;19.00;99.90
38241;DHT22;24037;49.536;8.500;2022-08-19T04:19:40;19.10;99.90
38241;DHT22;24037;49.536;8.500;2022-08-19T04:22:08;19.10;99.90
38241;DHT22;24037;49.536;8.500;2022-08-19T04:24:36;19.00;99.90
38241;DHT22;24037;49.536;8.500;2022-08-19T04:27:02;19.00;99.90
38241;DHT22;24037;49.536;8.500;2022-08-19T04:29:29;19.00;99.90
38241;DHT22;24037;49.536;8.500;2022-08-19T04:31:55;19.00;99.90
38241;DHT22;24037;49.536;8.500;2022-08-19T04:34:24;19.00;99.90
38241;DHT22;24037;49.536;8.500;2022-08-19T04:36:51;18.90;99.90
38241;DHT22;24037;49.536;8.500;2022-08-19T04:39:19;18.80;99.90
38241;DHT22;24037;49.536;8.500;2022-08-19T04:41:46;18.80;99.90
38241;DHT22;24037;49.536;8.500;2022-08-19T04:44:32;18.80;99.90
38241;DHT22;24037;49.536;8.500;2022-08-19T04:46:58;18.90;99.90
38241;DHT22;24037;49.536;8.500;2022-08-19T04:49:24;18.90;99.90
38241;DHT22;24037;49.536;8.500;2022-08-19T04:51:51;18.90;99.90
38241;DHT22;24037;49.536;8.500;2022-08-19T04:54:20;19.00;99.90
38241;DHT22;24037;49.536;8.500;2022-08-19T04:56:51;19.10;99.90
38241;DHT22;24037;49.536;8.500;2022-08-19T04:59:18;19.10;99.90
38241;DHT22;24037;49.536;8.500;2022-08-19T05:01:45;19.10;99.90
38241;DHT22;24037;49.536;8.500;2022-08-19T05:04:15;19.20;99.90
38241;DHT22;24037;49.536;8.500;2022-08-19T05:06:43;19.30;99.90
38241;DHT22;24037;49.536;8.500;2022-08-19T05:09:08;19.40;99.90
38241;DHT22;24037;49.536;8.500;2022-08-19T05:11:36;19.50;99.90
38241;DHT22;24037;49.536;8.500;2022-08-19T05:14:05;19.60;99.90
38241;DHT22;24037;49.536;8.500;2022-08-19T05:16:32;19.60;99.90
38241;DHT22;24037;49.536;8.500;2022-08-19T05:18:58;19.60;99.90
38241;DHT22;24037;49.536;8.500;2022-08-19T05:21:42;19.70;99.90
38241;DHT22;24037;49.536;8.500;2022-08-19T05:24:27;19.80;99.90
38241;DHT22;24037;49.536;8.500;2022-08-19T05:26:53;19.90;99.90
38241;DHT22;24037;49.536;8.500;2022-08-19T05:29:22;19.90;99.90
38241;DHT22;24037;49.536;8.500;2022-08-19T05:31:49;20.10;99.90
38241;DHT22;24037;49.536;8.500;2022-08-19T05:34:17;20.30;99.90
38241;DHT22;24037;49.536;8.500;2022-08-19T05:36:43;20.50;99.90
38241;DHT22;24037;49.536;8.500;2022-08-19T05:39:12;20.60;99.90
38241;DHT22;24037;49.536;8.500;2022-08-19T05:41:42;20.60;99.90
38241;DHT22;24037;49.536;8.500;2022-08-19T05:44:09;20.70;99.90
38241;DHT22;24037;49.536;8.500;2022-08-19T05:46:36;20.80;99.90
38241;DHT22;24037;49.536;8.500;2022-08-19T05:49:06;20.90;99.90
38241;DHT22;24037;49.536;8.500;2022-08-19T05:51:33;21.30;99.90
38241;DHT22;24037;49.536;8.500;2022-08-19T05:54:00;21.70;99.90
38241;DHT22;24037;49.536;8.500;2022-08-19T05:56:26;22.10;99.90
38241;DHT22;24037;49.536;8.500;2022-08-19T05:58:55;22.10;99.90
38241;DHT22;24037;49.536;8.500;2022-08-19T06:01:21;22.50;99.10
38241;DHT22;24037;49.536;8.500;2022-08-19T06:03:47;22.70;98.20
38241;DHT22;24037;49.536;8.500;2022-08-19T06:06:16;22.70;98.20
38241;DHT22;24037;49.536;8.500;2022-08-19T06:08:42;22.90;96.90
38241;DHT22;24037;49.536;8.500;2022-08-19T06:11:12;22.60;97.20
38241;DHT22;24037;49.536;8.500;2022-08-19T06:13:38;22.50;98.10
38241;DHT22;24037;49.536;8.500;2022-08-19T06:16:04;22.50;98.00
38241;DHT22;24037;49.536;8.500;2022-08-19T06:18:30;22.60;97.30
38241;DHT22;24037;49.536;8.500;2022-08-19T06:20:56;22.40;97.50
38241;DHT22;24037;49.536;8.500;2022-08-19T06:23:22;22.30;97.70
38241;DHT22;24037;49.536;8.500;2022-08-19T06:25:48;22.30;97.60
38241;DHT22;24037;49.536;8.500;2022-08-19T06:28:14;22.20;97.90
38241;DHT22;24037;49.536;8.500;2022-08-19T06:30:40;22.30;97.80
38241;DHT22;24037;49.536;8.500;2022-08-19T06:33:07;22.20;98.00
38241;DHT22;24037;49.536;8.500;2022-08-19T06:35:37;22.40;97.40
38241;DHT22;24037;49.536;8.500;2022-08-19T06:38:03;22.30;97.50
38241;DHT22;24037;49.536;8.500;2022-08-19T06:40:30;22.70;96.80
38241;DHT22;24037;49.536;8.500;2022-08-19T06:42:56;22.70;96.30
38241;DHT22;24037;49.536;8.500;2022-08-19T06:45:25;22.40;97.10
38241;DHT22;24037;49.536;8.500;2022-08-19T06:47:52;22.40;97.00
38241;DHT22;24037;49.536;8.500;2022-08-19T06:50:22;22.40;97.70
38241;DHT22;24037;49.536;8.500;2022-08-19T06:52:48;22.30;97.40
38241;DHT22;24037;49.536;8.500;2022-08-19T06:55:14;22.20;97.90
38241;DHT22;24037;49.536;8.500;2022-08-19T06:57:41;22.00;98.30
38241;DHT22;24037;49.536;8.500;2022-08-19T07:00:08;22.00;98.10
38241;DHT22;24037;49.536;8.500;2022-08-19T07:02:40;22.10;98.30
38241;DHT22;24037;49.536;8.500;2022-08-19T07:05:06;22.10;98.10
38241;DHT22;24037;49.536;8.500;2022-08-19T07:07:32;22.10;98.20
38241;DHT22;24037;49.536;8.500;2022-08-19T07:09:59;22.10;98.20
38241;DHT22;24037;49.536;8.500;2022-08-19T07:12:25;22.30;97.60
38241;DHT22;24037;49.536;8.500;2022-08-19T07:14:51;22.40;97.50
38241;DHT22;24037;49.536;8.500;2022-08-19T07:17:18;22.50;97.30
38241;DHT22;24037;49.536;8.500;2022-08-19T07:19:45;22.90;96.60
38241;DHT22;24037;49.536;8.500;2022-08-19T07:22:11;23.00;95.80
38241;DHT22;24037;49.536;8.500;2022-08-19T07:24:38;22.70;96.30
38241;DHT22;24037;49.536;8.500;2022-08-19T07:27:05;22.90;96.20
38241;DHT22;24037;49.536;8.500;2022-08-19T07:29:32;22.90;96.00
38241;DHT22;24037;49.536;8.500;2022-08-19T07:31:59;22.80;96.20
38241;DHT22;24037;49.536;8.500;2022-08-19T07:34:27;22.70;96.40
38241;DHT22;24037;49.536;8.500;2022-08-19T07:36:53;22.80;96.20
38241;DHT22;24037;49.536;8.500;2022-08-19T07:39:22;23.10;95.40
38241;DHT22;24037;49.536;8.500;2022-08-19T07:41:48;23.10;95.50
38241;DHT22;24037;49.536;8.500;2022-08-19T07:44:16;23.60;94.60
38241;DHT22;24037;49.536;8.500;2022-08-19T07:46:44;25.00;92.50
38241;DHT22;24037;49.536;8.500;2022-08-19T07:49:12;25.70;89.10
38241;DHT22;24037;49.536;8.500;2022-08-19T07:51:43;24.70;90.20
38241;DHT22;24037;49.536;8.500;2022-08-19T07:54:10;24.40;91.30
38241;DHT22;24037;49.536;8.500;2022-08-19T07:56:37;24.90;90.60
38241;DHT22;24037;49.536;8.500;2022-08-19T07:59:03;25.40;88.60
38241;DHT22;24037;49.536;8.500;2022-08-19T08:01:30;26.00;85.20
38241;DHT22;24037;49.536;8.500;2022-08-19T08:03:57;25.40;86.50
38241;DHT22;24037;49.536;8.500;2022-08-19T08:06:42;24.90;88.20
38241;DHT22;24037;49.536;8.500;2022-08-19T08:09:28;24.50;90.20
38241;DHT22;24037;49.536;8.500;2022-08-19T08:11:59;23.90;91.30
38241;DHT22;24037;49.536;8.500;2022-08-19T08:14:30;23.50;92.80
38241;DHT22;24037;49.536;8.500;2022-08-19T08:16:56;23.90;92.10
38241;DHT22;24037;49.536;8.500;2022-08-19T08:19:23;24.70;90.40
38241;DHT22;24037;49.536;8.500;2022-08-19T08:21:50;25.20;87.00
38241;DHT22;24037;49.536;8.500;2022-08-19T08:24:16;25.40;86.90
38241;DHT22;24037;49.536;8.500;2022-08-19T08:26:42;25.50;85.00
38241;DHT22;24037;49.536;8.500;2022-08-19T08:29:10;25.40;86.30
38241;DHT22;24037;49.536;8.500;2022-08-19T08:31:41;26.10;83.90
38241;DHT22;24037;49.536;8.500;2022-08-19T08:34:08;26.00;83.20
38241;DHT22;24037;49.536;8.500;2022-08-19T08:36:37;26.00;81.30
38241;DHT22;24037;49.536;8.500;2022-08-19T08:39:08;26.40;79.50
38241;DHT22;24037;49.536;8.500;2022-08-19T08:41:37;25.90;80.70
38241;DHT22;24037;49.536;8.500;2022-08-19T08:44:10;25.80;81.30
38241;DHT22;24037;49.536;8.500;2022-08-19T08:46:45;26.00;81.60
38241;DHT22;24037;49.536;8.500;2022-08-19T08:51:46;26.20;79.00
38241;DHT22;24037;49.536;8.500;2022-08-19T08:54:14;26.00;79.20
38241;DHT22;24037;49.536;8.500;2022-08-19T08:56:44;25.30;79.70
38241;DHT22;24037;49.536;8.500;2022-08-19T08:59:21;25.50;79.70
38241;DHT22;24037;49.536;8.500;2022-08-19T09:01:50;25.90;79.30
38241;DHT22;24037;49.536;8.500;2022-08-19T09:04:16;26.50;77.70
38241;DHT22;24037;49.536;8.500;2022-08-19T09:09:34;27.10;75.40
38241;DHT22;24037;49.536;8.500;2022-08-19T09:12:03;26.80;73.30
38241;DHT22;24037;49.536;8.500;2022-08-19T09:17:00;26.00;74.20
38241;DHT22;24037;49.536;8.500;2022-08-19T09:19:29;25.60;75.80
38241;DHT22;24037;49.536;8.500;2022-08-19T09:21:55;25.90;75.20
38241;DHT22;24037;49.536;8.500;2022-08-19T09:24:21;26.40;75.00
38241;DHT22;24037;49.536;8.500;2022-08-19T09:26:47;26.50;72.30
38241;DHT22;24037;49.536;8.500;2022-08-19T09:29:13;26.10;75.50
38241;DHT22;24037;49.536;8.500;2022-08-19T09:31:39;27.10;72.80
38241;DHT22;24037;49.536;8.500;2022-08-19T09:34:05;26.70;73.00
38241;DHT22;24037;49.536;8.500;2022-08-19T09:36:31;27.10;74.70
38241;DHT22;24037;49.536;8.500;2022-08-19T09:38:59;26.80;72.10
38241;DHT22;24037;49.536;8.500;2022-08-19T09:41:26;26.40;72.30
38241;DHT22;24037;49.536;8.500;2022-08-19T09:43:53;26.20;72.10
38241;DHT22;24037;49.536;8.500;2022-08-19T09:46:21;26.40;69.90
38241;DHT22;24037;49.536;8.500;2022-08-19T09:48:48;26.00;71.10
38241;DHT22;24037;49.536;8.500;2022-08-19T09:51:17;26.00;71.70
38241;DHT22;24037;49.536;8.500;2022-08-19T09:53:44;25.80;72.80
38241;DHT22;24037;49.536;8.500;2022-08-19T09:56:10;25.50;73.90
38241;DHT22;24037;49.536;8.500;2022-08-19T09:58:36;25.50;74.60
38241;DHT22;24037;49.536;8.500;2022-08-19T10:01:03;25.70;74.50
38241;DHT22;24037;49.536;8.500;2022-08-19T10:03:30;25.80;73.20
38241;DHT22;24037;49.536;8.500;2022-08-19T10:05:57;25.50;73.10
38241;DHT22;24037;49.536;8.500;2022-08-19T10:08:29;25.50;73.70
38241;DHT22;24037;49.536;8.500;2022-08-19T10:10:55;25.70;72.40
38241;DHT22;24037;49.536;8.500;2022-08-19T10:13:23;26.50;69.50
38241;DHT22;24037;49.536;8.500;2022-08-19T10:15:50;26.90;69.40
38241;DHT22;24037;49.536;8.500;2022-08-19T10:18:18;27.30;69.80
38241;DHT22;24037;49.536;8.500;2022-08-19T10:20:45;26.90;67.90
38241;DHT22;24037;49.536;8.500;2022-08-19T10:23:11;26.10;70.80
38241;DHT22;24037;49.536;8.500;2022-08-19T10:25:37;26.00;70.60
38241;DHT22;24037;49.536;8.500;2022-08-19T10:28:04;26.30;71.20
38241;DHT22;24037;49.536;8.500;2022-08-19T10:30:31;26.50;70.20
38241;DHT22;24037;49.536;8.500;2022-08-19T10:32:57;26.60;70.50
38241;DHT22;24037;49.536;8.500;2022-08-19T10:35:23;26.90;69.10
38241;DHT22;24037;49.536;8.500;2022-08-19T10:37:53;26.90;69.60
38241;DHT22;24037;49.536;8.500;2022-08-19T10:40:19;26.60;69.90
38241;DHT22;24037;49.536;8.500;2022-08-19T10:42:45;26.50;70.70
38241;DHT22;24037;49.536;8.500;2022-08-19T10:45:11;26.90;70.00
38241;DHT22;24037;49.536;8.500;2022-08-19T10:47:37;27.10;67.90
38241;DHT22;24037;49.536;8.500;2022-08-19T10:50:03;26.80;68.60
38241;DHT22;24037;49.536;8.500;2022-08-19T10:52:49;26.60;67.50
38241;DHT22;24037;49.536;8.500;2022-08-19T10:55:15;26.80;67.60
38241;DHT22;24037;49.536;8.500;2022-08-19T10:57:59;26.70;67.10
38241;DHT22;24037;49.536;8.500;2022-08-19T11:00:25;27.20;66.60
38241;DHT22;24037;49.536;8.500;2022-08-19T11:02:51;27.40;64.20
38241;DHT22;24037;49.536;8.500;2022-08-19T11:05:18;27.30;64.50
38241;DHT22;24037;49.536;8.500;2022-08-19T11:07:44;26.60;64.30
38241;DHT22;24037;49.536;8.500;2022-08-19T11:10:11;26.30;65.80
38241;DHT22;24037;49.536;8.500;2022-08-19T11:12:39;26.40;66.50
38241;DHT22;24037;49.536;8.500;2022-08-19T11:15:08;26.40;66.80
38241;DHT22;24037;49.536;8.500;2022-08-19T11:17:39;26.60;66.80
38241;DHT22;24037;49.536;8.500;2022-08-19T11:20:12;26.60;65.70
38241;DHT22;24037;49.536;8.500;2022-08-19T11:22:38;26.60;65.40
38241;DHT22;24037;49.536;8.500;2022-08-19T11:25:06;26.70;67.20
38241;DHT22;24037;49.536;8.500;2022-08-19T11:27:32;27.10;65.20
38241;DHT22;24037;49.536;8.500;2022-08-19T11:29:59;26.90;64.30
38241;DHT22;24037;49.536;8.500;2022-08-19T11:32:26;26.70;65.50
38241;DHT22;24037;49.536;8.500;2022-08-19T11:34:52;27.20;65.70
38241;DHT22;24037;49.536;8.500;2022-08-19T11:37:18;27.50;64.00
38241;DHT22;24037;49.536;8.500;2022-08-19T11:39:45;27.30;62.50
38241;DHT22;24037;49.536;8.500;2022-08-19T11:42:11;27.20;61.90
38241;DHT22;24037;49.536;8.500;2022-08-19T11:44:55;27.60;60.90
38241;DHT22;24037;49.536;8.500;2022-08-19T11:47:21;27.60;61.10
38241;DHT22;24037;49.536;8.500;2022-08-19T11:49:47;27.60;60.70
38241;DHT22;24037;49.536;8.500;2022-08-19T11:52:13;27.80;60.90
38241;DHT22;24037;49.536;8.500;2022-08-19T11:54:40;28.40;60.70
38241;DHT22;24037;49.536;8.500;2022-08-19T11:57:06;27.90;60.20
38241;DHT22;24037;49.536;8.500;2022-08-19T11:59:32;27.40;60.10
38241;DHT22;24037;49.536;8.500;2022-08-19T12:01:58;27.60;60.60
38241;DHT22;24037;49.536;8.500;2022-08-19T12:04:24;28.00;59.90
38241;DHT22;24037;49.536;8.500;2022-08-19T12:06:50;28.20;58.40
38241;DHT22;24037;49.536;8.500;2022-08-19T12:09:16;28.10;58.10
38241;DHT22;24037;49.536;8.500;2022-08-19T12:11:43;28.30;58.10
38241;DHT22;24037;49.536;8.500;2022-08-19T12:14:10;28.20;58.00
38241;DHT22;24037;49.536;8.500;2022-08-19T12:16:37;28.20;57.50
38241;DHT22;24037;49.536;8.500;2022-08-19T12:19:03;28.00;57.60
38241;DHT22;24037;49.536;8.500;2022-08-19T12:21:30;28.20;56.30
38241;DHT22;24037;49.536;8.500;2022-08-19T12:23:57;28.30;56.60
38241;DHT22;24037;49.536;8.500;2022-08-19T12:26:24;28.30;55.50
38241;DHT22;24037;49.536;8.500;2022-08-19T12:28:50;28.10;56.50
38241;DHT22;24037;49.536;8.500;2022-08-19T12:31:17;27.90;55.50
38241;DHT22;24037;49.536;8.500;2022-08-19T12:33:43;27.60;55.90
38241;DHT22;24037;49.536;8.500;2022-08-19T12:36:10;27.50;55.50
38241;DHT22;24037;49.536;8.500;2022-08-19T12:38:37;27.20;54.70
38241;DHT22;24037;49.536;8.500;2022-08-19T12:41:04;27.40;54.80
38241;DHT22;24037;49.536;8.500;2022-08-19T12:43:32;27.80;53.60
38241;DHT22;24037;49.536;8.500;2022-08-19T12:45:58;28.30;53.40
38241;DHT22;24037;49.536;8.500;2022-08-19T12:48:24;28.50;52.80
38241;DHT22;24037;49.536;8.500;2022-08-19T12:50:50;28.50;51.30
38241;DHT22;24037;49.536;8.500;2022-08-19T12:53:16;28.40;51.10
38241;DHT22;24037;49.536;8.500;2022-08-19T12:55:43;28.50;51.20
38241;DHT22;24037;49.536;8.500;2022-08-19T12:58:09;28.30;50.40
38241;DHT22;24037;49.536;8.500;2022-08-19T13:00:36;28.30;50.00
38241;DHT22;24037;49.536;8.500;2022-08-19T13:03:02;28.30;50.20
38241;DHT22;24037;49.536;8.500;2022-08-19T13:05:29;28.60;49.90
38241;DHT22;24037;49.536;8.500;2022-08-19T13:07:56;28.80;49.50
38241;DHT22;24037;49.536;8.500;2022-08-19T13:10:25;28.90;49.30
38241;DHT22;24037;49.536;8.500;2022-08-19T13:12:53;28.70;49.50
38241;DHT22;24037;49.536;8.500;2022-08-19T13:15:20;28.80;49.10
38241;DHT22;24037;49.536;8.500;2022-08-19T13:17:47;29.20;49.10
38241;DHT22;24037;49.536;8.500;2022-08-19T13:20:15;29.20;48.90
38241;DHT22;24037;49.536;8.500;2022-08-19T13:22:41;29.40;48.10
38241;DHT22;24037;49.536;8.500;2022-08-19T13:25:08;29.40;49.00
38241;DHT22;24037;49.536;8.500;2022-08-19T13:27:35;29.40;49.10
38241;DHT22;24037;49.536;8.500;2022-08-19T13:30:02;29.70;48.60
38241;DHT22;24037;49.536;8.500;2022-08-19T13:32:46;29.60;49.20
38241;DHT22;24037;49.536;8.500;2022-08-19T13:35:31;29.50;48.60
38241;DHT22;24037;49.536;8.500;2022-08-19T13:37:57;29.40;48.70
38241;DHT22;24037;49.536;8.500;2022-08-19T13:40:23;29.60;49.20
38241;DHT22;24037;49.536;8.500;2022-08-19T13:42:52;29.90;47.90
38241;DHT22;24037;49.536;8.500;2022-08-19T13:45:20;29.30;48.90
38241;DHT22;24037;49.536;8.500;2022-08-19T13:47:47;29.20;48.90
38241;DHT22;24037;49.536;8.500;2022-08-19T13:50:15;29.30;48.80
38241;DHT22;24037;49.536;8.500;2022-08-19T13:52:41;29.60;48.60
38241;DHT22;24037;49.536;8.500;2022-08-19T13:55:08;29.80;48.60
38241;DHT22;24037;49.536;8.500;2022-08-19T13:57:34;29.80;49.20
38241;DHT22;24037;49.536;8.500;2022-08-19T14:00:01;29.50;47.60
38241;DHT22;24037;49.536;8.500;2022-08-19T14:02:30;29.20;47.10
38241;DHT22;24037;49.536;8.500;2022-08-19T14:04:56;29.00;46.20
38241;DHT22;24037;49.536;8.500;2022-08-19T14:07:23;29.50;47.20
38241;DHT22;24037;49.536;8.500;2022-08-19T14:09:50;29.60;46.00
38241;DHT22;24037;49.536;8.500;2022-08-19T14:12:19;29.60;46.70
38241;DHT22;24037;49.536;8.500;2022-08-19T14:14:46;29.70;46.30
38241;DHT22;24037;49.536;8.500;2022-08-19T14:17:12;29.80;44.70
38241;DHT22;24037;49.536;8.500;2022-08-19T14:19:38;29.70;44.70
38241;DHT22;24037;49.536;8.500;2022-08-19T14:22:04;29.60;46.20
38241;DHT22;24037;49.536;8.500;2022-08-19T14:24:31;29.60;44.80
38241;DHT22;24037;49.536;8.500;2022-08-19T14:26:57;29.40;43.90
38241;DHT22;24037;49.536;8.500;2022-08-19T14:29:23;29.50;44.10
38241;DHT22;24037;49.536;8.500;2022-08-19T14:31:49;29.60;44.10
38241;DHT22;24037;49.536;8.500;2022-08-19T14:34:15;29.80;43.60
38241;DHT22;24037;49.536;8.500;2022-08-19T14:36:41;29.70;44.20
38241;DHT22;24037;49.536;8.500;2022-08-19T14:39:08;29.60;44.60
38241;DHT22;24037;49.536;8.500;2022-08-19T14:41:35;29.90;45.00
38241;DHT22;24037;49.536;8.500;2022-08-19T14:44:01;30.00;45.70
38241;DHT22;24037;49.536;8.500;2022-08-19T14:46:27;29.90;45.80
38241;DHT22;24037;49.536;8.500;2022-08-19T14:48:54;30.00;44.90
38241;DHT22;24037;49.536;8.500;2022-08-19T14:51:21;29.90;44.50
38241;DHT22;24037;49.536;8.500;2022-08-19T14:53:47;29.80;44.00
38241;DHT22;24037;49.536;8.500;2022-08-19T14:56:15;29.60;45.20
38241;DHT22;24037;49.536;8.500;2022-08-19T14:58:41;29.60;45.10
38241;DHT22;24037;49.536;8.500;2022-08-19T15:01:08;29.70;46.00
38241;DHT22;24037;49.536;8.500;2022-08-19T15:03:34;29.70;46.40
38241;DHT22;24037;49.536;8.500;2022-08-19T15:06:01;29.40;46.70
38241;DHT22;24037;49.536;8.500;2022-08-19T15:08:28;29.30;46.80
38241;DHT22;24037;49.536;8.500;2022-08-19T15:10:55;29.40;47.00
38241;DHT22;24037;49.536;8.500;2022-08-19T15:13:21;29.50;47.20
38241;DHT22;24037;49.536;8.500;2022-08-19T15:15:47;29.60;47.00
38241;DHT22;24037;49.536;8.500;2022-08-19T15:18:14;29.60;47.20
38241;DHT22;24037;49.536;8.500;2022-08-19T15:20:40;29.70;46.80
38241;DHT22;24037;49.536;8.500;2022-08-19T15:23:08;29.80;46.70
38241;DHT22;24037;49.536;8.500;2022-08-19T15:25:34;29.90;44.40
38241;DHT22;24037;49.536;8.500;2022-08-19T15:28:01;29.80;44.70
38241;DHT22;24037;49.536;8.500;2022-08-19T15:30:29;29.70;44.60
38241;DHT22;24037;49.536;8.500;2022-08-19T15:32:57;29.50;45.00
38241;DHT22;24037;49.536;8.500;2022-08-19T15:35:23;29.40;44.50
38241;DHT22;24037;49.536;8.500;2022-08-19T15:37:50;29.30;45.00
38241;DHT22;24037;49.536;8.500;2022-08-19T15:40:17;29.50;44.90
38241;DHT22;24037;49.536;8.500;2022-08-19T15:42:43;29.50;45.40